Terminal Aerodrome Forecast
Issued by NWS

Current Version | Previous Version | Graphics & Text | Print | Product List | Glossary On
Versions: 1 2 3 4 5 6 7 8 9 10 11 12 13 14 15 16 17 18 19 20 21 22 23
000
FTUS41 KRLX 240900 AAA
TAFCKB
TAF AMD
KCKB 240901Z 2409/2506 00000KT 6SM -RA OVC035
     FM241400 17005KT P6SM BKN035
     FM242200 18010G15KT 5SM SHRA BR OVC040
     FM242300 20009KT 4SM SHRA BR VCTS OVC035CB
     FM250200 23011G17KT 6SM SHRA BR VCTS OVC025CB
     FM250400 25011G17KT P6SM OVC025=

USA.gov is the U.S. government's official web portal to all federal, state and local government web resources and services.